Unionville, Indiana
Current Conditions -  °F | °C
As of 7:15 PM on Friday 21 Nov 2014 (Local Time) from K1II Reporting Station
Clear Clear  
Wind Chill: 24°   Ceiling: Unl
Heat Index: 30°   Visibility: 10mi
Dew Point: 12°   Wind: 6mph
Humidity: 47%   Direction: 170°S
Pressure: 30.42"   Gusts: NA
Location:  39.23°N, 86.42°W
Report Text: K1II 220015Z AUTO 17005KT 10SM CLR M01/M11 A3042 RMK AO2
Loading
Personal Weather Stations






























Interactive Weather Map New forecast layout! Learn more

10-Day Weather Forecast

Advertisements
Track Severe Weather on mobile